Time;durP1;ratioP1;P1;durP2;ratioP2;P2;SDS_P1;SDS_P2;PMS_P1;PMS_P2;Temp;Humidity;BMP_temperature;BMP_pressure;BME280_temperature;BME280_humidity;BME280_pressure;Samples;Min_cycle;Max_cycle;Signal;HPM_P1;HPM_P2
2022/05/25 00:01:36;;;;;;;2.65;1.80;;;;;;;;;;5052847;28;20037;-59
2022/05/25 00:04:02;;;;;;;3.17;1.75;;;;;;;;;;5065026;28;20043;-60
2022/05/25 00:06:28;;;;;;;3.95;1.70;;;;;;;;;;5065281;28;20028;-61
2022/05/25 00:08:53;;;;;;;2.80;1.60;;;;;;;;;;5066367;28;20078;-61
2022/05/25 00:11:19;;;;;;;4.07;1.85;;;;;;;;;;5059856;28;20423;-59
2022/05/25 00:13:44;;;;;;;4.35;1.90;;;;;;;;;;5054870;28;20040;-60
2022/05/25 00:16:10;;;;;;;2.47;1.80;;;;;;;;;;5050791;28;20032;-62
2022/05/25 00:18:35;;;;;;;4.38;1.92;;;;;;;;;;5050426;28;20029;-61
2022/05/25 00:21:00;;;;;;;5.75;2.17;;;;;;;;;;5051499;28;20432;-60
2022/05/25 00:23:26;;;;;;;6.75;2.30;;;;;;;;;;5057852;28;20032;-59
2022/05/25 00:25:52;;;;;;;3.25;1.90;;;;;;;;;;5069748;28;20033;-60
2022/05/25 00:28:17;;;;;;;3.47;2.03;;;;;;;;;;5062985;28;20046;-60
2022/05/25 00:30:45;;;;;;;4.32;2.10;;;;;;;;;;5071008;28;20082;-60
2022/05/25 00:33:11;;;;;;;4.38;2.30;;;;;;;;;;5059140;28;20025;-61
2022/05/25 00:35:38;;;;;;;5.53;3.28;;;;;;;;;;5064153;28;20042;-59
2022/05/25 00:38:06;;;;;;;3.17;2.30;;;;;;;;;;5058859;28;20061;-59
2022/05/25 00:40:41;;;;;;;3.50;2.20;;;;;;;;;;5064805;28;20273;-60
2022/05/25 00:43:07;;;;;;;4.60;2.38;;;;;;;;;;5065700;28;20111;-61
2022/05/25 00:45:48;;;;;;;5.78;2.50;;;;;;;;;;5062869;28;20280;-60
2022/05/25 00:48:24;;;;;;;4.07;2.35;;;;;;;;;;5058311;28;20029;-61
2022/05/25 00:53:35;;;;;;;4.25;2.30;;;;;;;;;;5074004;28;20508;-59
2022/05/25 00:56:02;;;;;;;4.13;2.40;;;;;;;;;;5063407;28;20036;-59
2022/05/25 00:58:27;;;;;;;4.28;2.25;;;;;;;;;;5058895;28;20389;-59
2022/05/25 01:00:53;;;;;;;4.32;2.28;;;;;;;;;;5064367;28;20453;-59
2022/05/25 01:03:19;;;;;;;4.88;2.40;;;;;;;;;;5060646;28;20136;-59
2022/05/25 01:06:12;;;;;;;6.53;2.80;;;;;;;;;;5059014;28;20389;-59
2022/05/25 01:08:55;;;;;;;4.43;2.40;;;;;;;;;;5063981;28;20473;-59
2022/05/25 01:11:42;;;;;;;5.35;2.50;;;;;;;;;;5065610;28;20190;-58
2022/05/25 01:14:22;;;;;;;3.63;2.60;;;;;;;;;;5069352;28;20476;-60
2022/05/25 01:16:54;;;;;;;4.05;2.30;;;;;;;;;;5055293;28;20068;-58
2022/05/25 01:20:04;;;;;;;5.45;2.50;;;;;;;;;;5053321;28;20029;-59
2022/05/25 01:22:50;;;;;;;5.50;2.42;;;;;;;;;;5045847;28;20049;-59
2022/05/25 01:25:42;;;;;;;4.35;2.72;;;;;;;;;;5073708;28;20357;-60
2022/05/25 01:28:47;;;;;;;4.15;2.50;;;;;;;;;;5069593;28;20032;-60
2022/05/25 01:31:21;;;;;;;3.53;2.53;;;;;;;;;;5051940;28;20040;-60
2022/05/25 01:33:58;;;;;;;4.82;2.50;;;;;;;;;;5076421;28;20463;-59
2022/05/25 01:36:36;;;;;;;9.48;3.03;;;;;;;;;;5059311;28;20075;-57
2022/05/25 01:39:06;;;;;;;3.92;2.42;;;;;;;;;;5070115;28;20055;-59
2022/05/25 01:41:55;;;;;;;5.00;3.50;;;;;;;;;;5053536;28;20037;-59
2022/05/25 01:44:25;;;;;;;5.95;2.70;;;;;;;;;;5068590;28;20041;-60
2022/05/25 01:47:03;;;;;;;3.40;2.73;;;;;;;;;;5062348;28;20428;-58
2022/05/25 01:49:34;;;;;;;5.68;2.63;;;;;;;;;;5060405;28;20048;-59
2022/05/25 01:52:09;;;;;;;5.88;2.90;;;;;;;;;;5053555;28;20481;-59
2022/05/25 01:54:39;;;;;;;4.13;2.60;;;;;;;;;;5054486;28;20507;-58
2022/05/25 01:57:11;;;;;;;6.63;3.05;;;;;;;;;;5053356;28;20037;-58
2022/05/25 01:59:36;;;;;;;4.43;2.70;;;;;;;;;;5058769;28;20114;-58
2022/05/25 02:04:52;;;;;;;6.65;2.80;;;;;;;;;;5057541;28;20039;-59
2022/05/25 02:07:49;;;;;;;4.47;2.85;;;;;;;;;;5051988;28;20094;-60
2022/05/25 02:10:33;;;;;;;5.80;3.33;;;;;;;;;;5063255;28;20523;-60
2022/05/25 02:13:24;;;;;;;6.40;3.10;;;;;;;;;;5067754;28;20458;-58
2022/05/25 02:16:40;;;;;;;4.90;2.90;;;;;;;;;;5036771;28;20037;-58
2022/05/25 02:19:10;;;;;;;4.70;2.65;;;;;;;;;;5057912;28;20044;-59
2022/05/25 02:21:46;;;;;;;5.93;3.40;;;;;;;;;;5052851;28;20044;-59
2022/05/25 02:24:34;;;;;;;9.93;3.65;;;;;;;;;;5054097;28;20465;-60
2022/05/25 02:27:03;;;;;;;8.85;3.83;;;;;;;;;;5052280;28;20076;-58
2022/05/25 02:29:35;;;;;;;9.15;3.50;;;;;;;;;;5059603;28;20041;-57
2022/05/25 02:32:18;;;;;;;6.68;3.90;;;;;;;;;;5065415;28;20025;-58
2022/05/25 02:34:49;;;;;;;7.43;4.03;;;;;;;;;;5059578;28;20044;-58
2022/05/25 02:37:16;;;;;;;8.13;3.90;;;;;;;;;;5052570;28;20136;-58
2022/05/25 02:39:43;;;;;;;8.07;4.70;;;;;;;;;;5038904;28;20370;-59
2022/05/25 02:42:14;;;;;;;7.35;4.25;;;;;;;;;;5071911;28;20036;-60
2022/05/25 02:44:40;;;;;;;11.27;4.88;;;;;;;;;;5064450;28;20033;-58
2022/05/25 02:47:06;;;;;;;7.28;4.57;;;;;;;;;;5069619;28;20032;-56
2022/05/25 02:49:31;;;;;;;7.57;4.53;;;;;;;;;;5070079;28;20047;-59
2022/05/25 02:51:57;;;;;;;8.13;4.70;;;;;;;;;;5070633;28;20035;-58
2022/05/25 02:54:22;;;;;;;7.88;4.93;;;;;;;;;;5069119;28;20052;-58
2022/05/25 02:56:49;;;;;;;9.57;5.22;;;;;;;;;;5036090;28;20119;-58
2022/05/25 02:59:15;;;;;;;9.65;5.13;;;;;;;;;;5056974;28;20060;-54
2022/05/25 03:01:40;;;;;;;9.65;5.07;;;;;;;;;;5055264;28;20536;-59
2022/05/25 03:04:06;;;;;;;9.60;4.57;;;;;;;;;;5069278;28;20028;-58
2022/05/25 03:06:31;;;;;;;11.02;5.57;;;;;;;;;;5052493;28;20025;-56
2022/05/25 03:08:56;;;;;;;9.10;5.10;;;;;;;;;;5052541;28;20087;-58
2022/05/25 03:11:22;;;;;;;8.15;5.00;;;;;;;;;;5060447;28;20527;-57
2022/05/25 03:13:48;;;;;;;9.05;4.97;;;;;;;;;;5051080;28;20410;-58
2022/05/25 03:16:16;;;;;;;10.13;5.50;;;;;;;;;;5054333;28;20036;-59
2022/05/25 03:18:43;;;;;;;10.30;5.50;;;;;;;;;;5066757;28;20166;-55
2022/05/25 03:21:08;;;;;;;8.98;5.38;;;;;;;;;;5068550;28;20040;-57
2022/05/25 03:23:35;;;;;;;9.30;5.40;;;;;;;;;;5053303;28;20024;-55
2022/05/25 03:26:00;;;;;;;9.18;4.90;;;;;;;;;;5056529;28;20117;-59
2022/05/25 03:28:25;;;;;;;9.07;4.85;;;;;;;;;;5065234;28;20104;-59
2022/05/25 03:30:51;;;;;;;10.02;5.20;;;;;;;;;;5065015;28;20461;-58
2022/05/25 03:33:16;;;;;;;10.73;5.22;;;;;;;;;;5061466;28;20036;-58
2022/05/25 03:35:43;;;;;;;11.57;4.90;;;;;;;;;;5047363;28;20028;-58
2022/05/25 03:38:09;;;;;;;8.70;5.00;;;;;;;;;;5051297;28;20037;-59
2022/05/25 03:40:38;;;;;;;9.65;5.18;;;;;;;;;;5058667;28;20384;-59
2022/05/25 03:43:05;;;;;;;10.80;5.13;;;;;;;;;;5071633;28;20504;-60
2022/05/25 03:45:31;;;;;;;11.25;5.35;;;;;;;;;;5070947;28;20438;-59
2022/05/25 03:47:56;;;;;;;9.20;5.32;;;;;;;;;;5071991;28;20141;-59
2022/05/25 03:50:23;;;;;;;8.25;5.40;;;;;;;;;;5071116;28;20464;-58
2022/05/25 03:52:48;;;;;;;10.63;5.80;;;;;;;;;;5065264;28;20465;-58
2022/05/25 03:55:14;;;;;;;12.23;5.95;;;;;;;;;;5072290;28;20056;-57
2022/05/25 03:57:39;;;;;;;9.80;5.40;;;;;;;;;;5071075;28;20626;-57
2022/05/25 04:00:06;;;;;;;13.02;5.82;;;;;;;;;;5071560;28;20036;-58
2022/05/25 04:02:31;;;;;;;9.80;5.90;;;;;;;;;;5071347;28;20036;-57
2022/05/25 04:05:08;;;;;;;14.15;6.13;;;;;;;;;;5065188;28;20059;-59
2022/05/25 04:07:44;;;;;;;11.07;5.90;;;;;;;;;;5069766;28;20455;-59
2022/05/25 04:10:20;;;;;;;10.93;6.03;;;;;;;;;;5071690;28;20389;-61
2022/05/25 04:12:47;;;;;;;11.10;5.93;;;;;;;;;;5071696;28;20035;-59
2022/05/25 04:15:16;;;;;;;7.88;5.35;;;;;;;;;;5070219;28;20035;-60
2022/05/25 04:17:41;;;;;;;9.10;5.38;;;;;;;;;;5071281;28;20259;-58
2022/05/25 04:20:08;;;;;;;11.40;5.68;;;;;;;;;;5071925;28;20076;-59
2022/05/25 04:22:35;;;;;;;9.30;5.40;;;;;;;;;;5071401;28;20032;-60
2022/05/25 04:25:07;;;;;;;9.70;6.10;;;;;;;;;;5075256;28;20021;-60
2022/05/25 04:27:33;;;;;;;11.15;5.82;;;;;;;;;;5075413;28;20039;-59
2022/05/25 04:29:58;;;;;;;11.55;5.55;;;;;;;;;;5056179;28;20033;-59
2022/05/25 04:32:24;;;;;;;9.57;5.82;;;;;;;;;;5057631;28;20039;-60
2022/05/25 04:34:49;;;;;;;8.77;5.85;;;;;;;;;;5070140;28;20427;-59
2022/05/25 04:39:59;;;;;;;9.55;5.78;;;;;;;;;;5055263;28;20436;-59
2022/05/25 04:42:28;;;;;;;12.63;5.25;;;;;;;;;;5054328;28;20068;-59
2022/05/25 04:44:59;;;;;;;10.00;5.90;;;;;;;;;;5075103;28;20031;-58
2022/05/25 04:47:26;;;;;;;12.25;6.03;;;;;;;;;;5074713;28;20032;-60
2022/05/25 04:49:51;;;;;;;8.80;5.55;;;;;;;;;;5069644;28;20458;-60
2022/05/25 04:52:17;;;;;;;9.82;5.80;;;;;;;;;;5036961;28;20116;-59
2022/05/25 04:54:42;;;;;;;9.70;5.78;;;;;;;;;;5054464;28;20076;-59
2022/05/25 04:57:19;;;;;;;9.13;5.53;;;;;;;;;;5055218;28;20025;-59
2022/05/25 04:59:49;;;;;;;11.93;5.90;;;;;;;;;;5054385;28;20037;-59
2022/05/25 05:02:15;;;;;;;9.70;5.63;;;;;;;;;;5058131;28;20036;-59
2022/05/25 05:04:40;;;;;;;11.52;5.68;;;;;;;;;;5067003;28;20081;-59
2022/05/25 05:07:05;;;;;;;10.90;6.00;;;;;;;;;;5062913;28;20476;-59
2022/05/25 05:09:35;;;;;;;11.77;6.38;;;;;;;;;;5070569;28;20040;-58
2022/05/25 05:12:01;;;;;;;9.48;5.72;;;;;;;;;;5074741;28;20357;-58
2022/05/25 05:14:27;;;;;;;11.75;6.55;;;;;;;;;;5074380;28;20047;-60
2022/05/25 05:17:01;;;;;;;15.32;6.05;;;;;;;;;;5075165;28;20040;-59
2022/05/25 05:19:27;;;;;;;10.52;6.43;;;;;;;;;;5073937;28;20032;-60
2022/05/25 05:21:59;;;;;;;16.63;6.35;;;;;;;;;;5061236;28;20040;-60
2022/05/25 05:24:28;;;;;;;13.38;6.43;;;;;;;;;;5054969;28;20130;-59
2022/05/25 05:26:54;;;;;;;11.77;6.43;;;;;;;;;;5054844;28;20047;-59
2022/05/25 05:29:19;;;;;;;11.50;5.68;;;;;;;;;;5054571;28;20485;-58
2022/05/25 05:31:45;;;;;;;12.95;6.30;;;;;;;;;;5035689;28;20128;-60
2022/05/25 05:34:10;;;;;;;12.88;6.07;;;;;;;;;;5054645;28;20465;-58
2022/05/25 05:37:00;;;;;;;12.55;6.40;;;;;;;;;;5053261;28;20052;-58
2022/05/25 05:39:28;;;;;;;12.35;6.68;;;;;;;;;;5054333;28;20021;-59
2022/05/25 05:41:59;;;;;;;9.60;5.68;;;;;;;;;;5054614;28;20103;-58
2022/05/25 05:44:41;;;;;;;10.75;6.35;;;;;;;;;;5037314;28;20053;-60
2022/05/25 05:47:11;;;;;;;11.02;6.20;;;;;;;;;;5054496;28;20051;-60
2022/05/25 05:49:38;;;;;;;17.53;6.63;;;;;;;;;;5053241;28;20473;-60
2022/05/25 05:52:04;;;;;;;10.93;6.40;;;;;;;;;;5054358;28;20356;-60
2022/05/25 05:54:30;;;;;;;10.70;6.43;;;;;;;;;;5053799;28;20084;-61
2022/05/25 05:56:55;;;;;;;12.00;5.97;;;;;;;;;;5053837;28;20418;-61
2022/05/25 05:59:21;;;;;;;14.57;6.35;;;;;;;;;;5069054;28;20465;-60
2022/05/25 06:01:46;;;;;;;11.15;5.88;;;;;;;;;;5053310;28;20037;-60
2022/05/25 06:04:12;;;;;;;14.80;6.22;;;;;;;;;;5054194;28;20536;-59
2022/05/25 06:06:37;;;;;;;9.95;5.90;;;;;;;;;;5053556;28;20433;-57
2022/05/25 06:09:03;;;;;;;11.05;5.85;;;;;;;;;;5054028;28;20029;-59
2022/05/25 06:11:29;;;;;;;13.27;5.80;;;;;;;;;;5053481;28;20032;-61
2022/05/25 06:13:54;;;;;;;9.55;5.65;;;;;;;;;;5055349;28;20032;-65
2022/05/25 06:21:48;;;;;;;13.40;5.90;;;;;;;;;;5073232;28;20091;-60
2022/05/25 06:24:13;;;;;;;11.10;4.85;;;;;;;;;;5073737;28;20324;-60
2022/05/25 06:26:39;;;;;;;13.88;5.45;;;;;;;;;;5059203;28;20037;-60
2022/05/25 06:29:04;;;;;;;8.45;4.53;;;;;;;;;;5035573;28;20179;-60
2022/05/25 06:31:31;;;;;;;7.93;4.13;;;;;;;;;;5053066;28;20032;-63
2022/05/25 06:33:57;;;;;;;9.45;4.40;;;;;;;;;;5054032;28;20040;-59
2022/05/25 06:36:28;;;;;;;8.52;4.10;;;;;;;;;;5053577;28;20108;-61
2022/05/25 06:38:54;;;;;;;;;;;;;;;;;;5053553;28;20064;-61
2022/05/25 06:41:20;;;;;;;9.57;3.42;;;;;;;;;;5053266;28;19908;-61
2022/05/25 06:43:45;;;;;;;7.32;3.20;;;;;;;;;;5052939;28;20040;-60
2022/05/25 06:46:13;;;;;;;7.30;3.20;;;;;;;;;;5053564;28;20029;-60
2022/05/25 06:48:39;;;;;;;7.50;2.90;;;;;;;;;;5052632;28;20075;-61
2022/05/25 06:51:11;;;;;;;7.07;2.92;;;;;;;;;;5053118;28;20029;-61
2022/05/25 06:53:37;;;;;;;6.03;2.40;;;;;;;;;;5052654;28;20110;-60
2022/05/25 06:56:03;;;;;;;7.28;2.83;;;;;;;;;;5052814;28;20029;-60
2022/05/25 06:58:28;;;;;;;5.15;2.60;;;;;;;;;;5067705;28;20119;-58
2022/05/25 07:00:53;;;;;;;5.13;2.75;;;;;;;;;;5052701;28;20115;-59
2022/05/25 07:03:20;;;;;;;7.05;2.80;;;;;;;;;;5047469;28;20032;-59
2022/05/25 07:05:46;;;;;;;5.22;2.90;;;;;;;;;;5052200;28;20033;-59
2022/05/25 07:08:11;;;;;;;9.02;2.70;;;;;;;;;;5056961;28;20421;-61
2022/05/25 07:10:37;;;;;;;6.93;2.50;;;;;;;;;;5051891;28;20031;-60
2022/05/25 07:13:02;;;;;;;5.38;2.80;;;;;;;;;;5052326;28;20037;-57
2022/05/25 07:15:27;;;;;;;5.38;2.63;;;;;;;;;;5052507;28;20104;-59
2022/05/25 07:17:53;;;;;;;5.57;2.50;;;;;;;;;;5034268;28;20389;-57
2022/05/25 07:20:18;;;;;;;8.80;2.47;;;;;;;;;;5052442;28;20469;-58
2022/05/25 07:22:44;;;;;;;6.45;2.40;;;;;;;;;;5052617;28;20067;-57
2022/05/25 07:25:09;;;;;;;7.05;2.60;;;;;;;;;;5052584;28;20060;-57
2022/05/25 07:27:35;;;;;;;5.93;2.35;;;;;;;;;;5051333;28;20108;-61
2022/05/25 07:30:00;;;;;;;7.38;2.33;;;;;;;;;;5034496;28;20079;-59
2022/05/25 07:32:27;;;;;;;5.35;1.50;;;;;;;;;;5038658;28;20029;-57
2022/05/25 07:34:58;;;;;;;3.90;1.73;;;;;;;;;;5057346;28;20028;-58
2022/05/25 07:37:25;;;;;;;2.83;1.70;;;;;;;;;;5052627;28;20029;-58
2022/05/25 07:39:58;;;;;;;4.43;1.65;;;;;;;;;;5051753;28;20037;-57
2022/05/25 07:42:25;;;;;;;4.95;1.90;;;;;;;;;;5067702;28;20044;-59
2022/05/25 07:44:55;;;;;;;9.85;2.50;;;;;;;;;;5071504;28;20358;-59
2022/05/25 07:47:21;;;;;;;4.97;2.00;;;;;;;;;;5072384;28;20024;-60
2022/05/25 07:49:47;;;;;;;6.15;2.20;;;;;;;;;;5071548;28;20040;-59
2022/05/25 07:52:13;;;;;;;3.85;1.98;;;;;;;;;;5072269;28;20036;-59
2022/05/25 07:54:43;;;;;;;7.28;2.10;;;;;;;;;;5071689;28;20048;-59
2022/05/25 07:57:10;;;;;;;4.20;1.95;;;;;;;;;;5054101;28;20028;-60
2022/05/25 07:59:36;;;;;;;4.32;1.55;;;;;;;;;;5051008;28;20465;-62
2022/05/25 08:07:36;;;;;;;2.63;1.45;;;;;;;;;;5058999;28;20046;-59
2022/05/25 08:10:08;;;;;;;3.35;1.35;;;;;;;;;;5071883;28;20036;-59
2022/05/25 08:12:36;;;;;;;4.82;1.50;;;;;;;;;;5071854;28;20040;-58
2022/05/25 08:15:01;;;;;;;2.45;1.38;;;;;;;;;;5072231;28;20060;-60
2022/05/25 08:17:27;;;;;;;2.60;1.30;;;;;;;;;;5071991;28;20519;-59
2022/05/25 08:19:52;;;;;;;3.78;1.20;;;;;;;;;;5071301;28;20397;-59
2022/05/25 08:22:18;;;;;;;2.58;1.25;;;;;;;;;;5057184;28;20033;-58
2022/05/25 08:24:43;;;;;;;3.38;1.30;;;;;;;;;;5051436;28;20040;-59
2022/05/25 08:27:08;;;;;;;5.82;2.88;;;;;;;;;;5051926;28;20035;-59
2022/05/25 08:29:34;;;;;;;3.00;1.60;;;;;;;;;;5051512;28;20029;-59
2022/05/25 08:31:59;;;;;;;3.55;1.80;;;;;;;;;;5051311;28;20458;-60
2022/05/25 08:34:26;;;;;;;3.72;1.40;;;;;;;;;;5051873;28;20460;-59
2022/05/25 08:36:52;;;;;;;3.90;1.45;;;;;;;;;;5068078;28;20032;-59
2022/05/25 08:39:18;;;;;;;6.57;1.60;;;;;;;;;;5087440;28;20043;-60
2022/05/25 08:41:46;;;;;;;3.45;1.40;;;;;;;;;;5071279;28;20031;-58
2022/05/25 08:44:12;;;;;;;2.92;1.30;;;;;;;;;;5071428;28;20031;-60
2022/05/25 08:46:39;;;;;;;3.45;1.50;;;;;;;;;;5071724;28;20078;-60
2022/05/25 08:49:11;;;;;;;2.90;1.08;;;;;;;;;;5071697;28;20060;-60
2022/05/25 08:51:49;;;;;;;2.15;1.20;;;;;;;;;;5039271;28;20115;-58
2022/05/25 08:54:16;;;;;;;1.80;1.20;;;;;;;;;;5051235;28;20041;-59
2022/05/25 08:56:56;;;;;;;3.42;1.23;;;;;;;;;;5050736;28;20107;-60
2022/05/25 08:59:52;;;;;;;2.75;1.13;;;;;;;;;;5051607;28;20028;-60
2022/05/25 09:02:36;;;;;;;3.15;1.13;;;;;;;;;;5051693;28;20048;-59
2022/05/25 09:05:07;;;;;;;2.65;1.23;;;;;;;;;;5051631;28;20029;-60
2022/05/25 09:07:49;;;;;;;2.13;1.10;;;;;;;;;;5069760;28;20032;-59
2022/05/25 09:10:16;;;;;;;2.17;1.33;;;;;;;;;;5071664;28;20100;-58
2022/05/25 09:12:49;;;;;;;5.85;1.38;;;;;;;;;;5074222;28;20354;-59
2022/05/25 09:15:23;;;;;;;4.15;1.60;;;;;;;;;;5075240;28;20482;-60
2022/05/25 09:17:54;;;;;;;4.65;1.30;;;;;;;;;;5074167;28;20373;-60
2022/05/25 09:20:50;;;;;;;1.50;0.98;;;;;;;;;;5069393;28;20025;-60
2022/05/25 09:23:19;;;;;;;2.72;1.30;;;;;;;;;;5054296;28;20175;-59
2022/05/25 09:25:46;;;;;;;1.50;1.25;;;;;;;;;;5054410;28;20491;-60
2022/05/25 09:28:20;;;;;;;5.05;1.52;;;;;;;;;;5037115;28;20037;-60
2022/05/25 09:30:50;;;;;;;2.85;1.48;;;;;;;;;;5054266;28;20033;-61
2022/05/25 09:33:31;;;;;;;4.82;1.42;;;;;;;;;;5044327;28;20036;-60
2022/05/25 09:36:02;;;;;;;;;;;;;;;;;;5054414;28;20033;-60
2022/05/25 09:38:42;;;;;;;1.65;1.20;;;;;;;;;;5045580;28;19916;-59
2022/05/25 09:41:11;;;;;;;3.13;1.40;;;;;;;;;;5072527;28;20068;-58
2022/05/25 09:43:39;;;;;;;2.03;1.30;;;;;;;;;;5074127;28;20028;-58
2022/05/25 09:46:20;;;;;;;4.05;1.38;;;;;;;;;;5073888;28;20036;-58
2022/05/25 09:48:58;;;;;;;4.78;1.60;;;;;;;;;;5065034;28;20108;-60
2022/05/25 09:51:44;;;;;;;2.50;1.35;;;;;;;;;;5053478;28;20484;-60
2022/05/25 09:54:28;;;;;;;4.45;1.50;;;;;;;;;;5054234;28;20049;-60
2022/05/25 09:57:02;;;;;;;3.67;1.20;;;;;;;;;;5053830;28;20033;-60
2022/05/25 09:59:50;;;;;;;1.50;1.02;;;;;;;;;;5053926;28;20025;-60
2022/05/25 10:02:37;;;;;;;3.17;1.60;;;;;;;;;;5052551;28;20094;-60
2022/05/25 10:05:14;;;;;;;3.20;1.35;;;;;;;;;;5056054;28;20041;-60
2022/05/25 10:07:52;;;;;;;2.08;1.40;;;;;;;;;;5053948;28;20039;-60
2022/05/25 10:10:32;;;;;;;3.92;1.33;;;;;;;;;;5053970;28;20033;-60
2022/05/25 10:13:21;;;;;;;2.33;1.52;;;;;;;;;;5053391;28;20061;-60
2022/05/25 10:15:51;;;;;;;4.72;1.65;;;;;;;;;;5052929;28;20041;-61
2022/05/25 10:18:31;;;;;;;4.60;1.40;;;;;;;;;;5036575;28;20037;-60
2022/05/25 10:20:57;;;;;;;3.10;1.40;;;;;;;;;;5054989;28;20051;-60
2022/05/25 10:23:24;;;;;;;2.70;1.40;;;;;;;;;;5055302;28;20033;-60
2022/05/25 10:25:54;;;;;;;3.38;1.45;;;;;;;;;;5072763;28;20074;-60
2022/05/25 10:28:33;;;;;;;2.58;1.35;;;;;;;;;;5073293;28;20036;-60
2022/05/25 10:36:45;;;;;;;4.28;1.35;;;;;;;;;;5071060;28;20082;-60
2022/05/25 10:37:07;;;;;;;3.20;1.30;;;;;;;;;;5072455;28;20039;-60
2022/05/25 10:39:53;;;;;;;2.30;1.30;;;;;;;;;;5073750;28;20457;-61
2022/05/25 10:42:26;;;;;;;2.67;1.55;;;;;;;;;;5055620;28;20061;-60
2022/05/25 10:45:12;;;;;;;3.58;1.50;;;;;;;;;;5073068;28;20028;-60
2022/05/25 10:47:54;;;;;;;4.53;1.58;;;;;;;;;;5069213;28;20520;-60
2022/05/25 10:50:37;;;;;;;3.75;1.45;;;;;;;;;;5053282;28;20040;-61
2022/05/25 10:53:15;;;;;;;3.75;1.50;;;;;;;;;;5052476;28;20021;-59
2022/05/25 10:56:04;;;;;;;3.55;1.50;;;;;;;;;;5053040;28;20529;-59
2022/05/25 10:58:56;;;;;;;3.30;1.38;;;;;;;;;;5052927;28;20041;-59
2022/05/25 11:01:44;;;;;;;3.28;1.50;;;;;;;;;;5053260;28;20124;-59
2022/05/25 11:04:34;;;;;;;3.13;1.40;;;;;;;;;;5051885;28;20025;-60
2022/05/25 11:07:24;;;;;;;1.95;1.58;;;;;;;;;;5052330;28;20120;-60
2022/05/25 11:09:59;;;;;;;5.78;1.55;;;;;;;;;;5052479;28;20067;-60
2022/05/25 11:12:36;;;;;;;3.78;1.42;;;;;;;;;;5052955;28;20024;-60
2022/05/25 11:15:20;;;;;;;3.53;1.38;;;;;;;;;;5052342;28;20223;-60
2022/05/25 11:17:48;;;;;;;3.58;1.45;;;;;;;;;;5053078;28;20036;-60
2022/05/25 11:20:14;;;;;;;3.78;1.40;;;;;;;;;;5052811;28;20080;-60
2022/05/25 11:23:07;;;;;;;2.58;1.70;;;;;;;;;;5052802;28;20122;-60
2022/05/25 11:25:50;;;;;;;3.95;2.28;;;;;;;;;;5052873;28;20036;-60
2022/05/25 11:28:52;;;;;;;4.68;1.40;;;;;;;;;;5052848;28;20127;-60
2022/05/25 11:32:13;;;;;;;4.80;1.60;;;;;;;;;;5052379;28;20021;-60
2022/05/25 11:34:57;;;;;;;2.97;1.50;;;;;;;;;;5047896;28;20052;-60
2022/05/25 11:38:08;;;;;;;4.72;1.50;;;;;;;;;;5052776;28;20025;-60
2022/05/25 11:41:11;;;;;;;2.30;1.20;;;;;;;;;;5035245;28;20037;-60
2022/05/25 11:44:09;;;;;;;3.72;1.50;;;;;;;;;;5052279;28;20029;-60
2022/05/25 11:46:50;;;;;;;4.50;1.40;;;;;;;;;;5052131;28;20035;-60
2022/05/25 11:49:28;;;;;;;2.78;1.10;;;;;;;;;;5035540;28;20491;-60
2022/05/25 11:52:05;;;;;;;3.15;1.20;;;;;;;;;;5064520;28;20473;-60
2022/05/25 11:54:41;;;;;;;1.83;1.10;;;;;;;;;;5072189;28;20135;-60
2022/05/25 11:57:15;;;;;;;2.15;1.30;;;;;;;;;;5071373;28;20469;-60
2022/05/25 12:00:04;;;;;;;1.02;0.95;;;;;;;;;;5072277;28;20437;-60
2022/05/25 12:02:49;;;;;;;2.30;1.00;;;;;;;;;;5061926;28;20037;-60
2022/05/25 12:05:53;;;;;;;7.00;1.10;;;;;;;;;;5062422;28;20383;-59
2022/05/25 12:08:27;;;;;;;1.38;1.00;;;;;;;;;;5016777;28;20132;-59
2022/05/25 12:11:23;;;;;;;2.65;1.05;;;;;;;;;;5071074;28;20122;-60
2022/05/25 12:14:13;;;;;;;3.22;0.95;;;;;;;;;;5071174;28;20028;-60
2022/05/25 12:16:43;;;;;;;2.03;1.10;;;;;;;;;;5069264;28;20461;-60
2022/05/25 12:19:17;;;;;;;0.95;0.90;;;;;;;;;;5058275;28;20028;-60
2022/05/25 12:21:49;;;;;;;2.47;1.00;;;;;;;;;;5054585;28;20028;-60
2022/05/25 12:24:19;;;;;;;1.73;1.10;;;;;;;;;;5050958;28;20094;-60
2022/05/25 12:26:45;;;;;;;1.50;1.13;;;;;;;;;;5051850;28;20057;-60
2022/05/25 12:29:14;;;;;;;1.73;0.95;;;;;;;;;;5051767;28;20044;-60
2022/05/25 12:31:42;;;;;;;6.10;2.20;;;;;;;;;;5050506;28;20456;-61
2022/05/25 12:34:16;;;;;;;4.85;1.40;;;;;;;;;;5059372;28;20048;-60
2022/05/25 12:36:42;;;;;;;2.65;0.95;;;;;;;;;;5052199;28;20037;-61
2022/05/25 12:39:09;;;;;;;1.92;1.02;;;;;;;;;;5050785;28;20036;-61
2022/05/25 12:41:37;;;;;;;1.50;1.10;;;;;;;;;;5051555;28;20046;-60
2022/05/25 12:49:43;;;;;;;1.33;1.23;;;;;;;;;;5075462;28;20077;-60
2022/05/25 12:52:26;;;;;;;2.55;1.10;;;;;;;;;;5074417;28;20032;-60
2022/05/25 12:54:53;;;;;;;1.63;1.02;;;;;;;;;;5075095;28;20048;-60
2022/05/25 12:57:34;;;;;;;2.03;1.15;;;;;;;;;;5072719;28;20178;-62
2022/05/25 13:00:15;;;;;;;1.20;1.00;;;;;;;;;;5062636;28;20033;-60
2022/05/25 13:02:40;;;;;;;2.30;0.90;;;;;;;;;;5075212;28;20021;-60
2022/05/25 13:05:08;;;;;;;2.30;1.10;;;;;;;;;;5074511;28;20032;-60
2022/05/25 13:07:47;;;;;;;3.72;1.20;;;;;;;;;;5075151;28;20037;-61
2022/05/25 13:10:30;;;;;;;2.25;1.10;;;;;;;;;;5074535;28;20028;-61
2022/05/25 13:12:56;;;;;;;2.90;1.15;;;;;;;;;;5074404;28;20090;-60
2022/05/25 13:15:22;;;;;;;3.70;1.30;;;;;;;;;;5072138;28;20394;-60
2022/05/25 13:17:47;;;;;;;2.78;1.20;;;;;;;;;;5074948;28;20025;-60
2022/05/25 13:20:46;;;;;;;1.48;0.90;;;;;;;;;;5074580;28;20117;-60
2022/05/25 13:23:51;;;;;;;3.03;1.00;;;;;;;;;;5074363;28;20029;-60
2022/05/25 13:26:32;;;;;;;2.70;1.10;;;;;;;;;;5074319;28;20068;-60
2022/05/25 13:29:08;;;;;;;3.42;1.13;;;;;;;;;;5068407;28;20107;-61
2022/05/25 13:32:01;;;;;;;3.47;1.33;;;;;;;;;;5071429;28;20066;-60
2022/05/25 13:34:31;;;;;;;2.70;1.25;;;;;;;;;;5074924;28;20037;-60
2022/05/25 13:37:00;;;;;;;3.40;1.20;;;;;;;;;;5074167;28;20477;-60
2022/05/25 13:39:28;;;;;;;1.63;1.00;;;;;;;;;;5074615;28;20499;-60
2022/05/25 13:42:08;;;;;;;2.20;1.10;;;;;;;;;;5074571;28;20032;-60
2022/05/25 13:44:57;;;;;;;1.63;1.10;;;;;;;;;;5065738;28;20032;-60
2022/05/25 13:47:26;;;;;;;2.70;1.13;;;;;;;;;;5051514;28;20033;-62
2022/05/25 13:49:58;;;;;;;2.92;1.02;;;;;;;;;;5054264;28;20079;-60
2022/05/25 13:52:35;;;;;;;1.65;1.10;;;;;;;;;;5054080;28;20025;-60
2022/05/25 13:55:23;;;;;;;3.33;1.50;;;;;;;;;;5053908;28;20040;-61
2022/05/25 13:57:59;;;;;;;2.40;1.00;;;;;;;;;;5055024;28;20119;-60
2022/05/25 14:00:27;;;;;;;2.85;1.20;;;;;;;;;;5054708;28;20037;-60
2022/05/25 14:02:54;;;;;;;5.20;1.00;;;;;;;;;;5054108;28;20033;-60
2022/05/25 14:05:27;;;;;;;3.58;1.00;;;;;;;;;;5053615;28;20112;-60
2022/05/25 14:07:53;;;;;;;2.33;1.10;;;;;;;;;;5054036;28;20040;-60
2022/05/25 14:13:20;;;;;;;1.20;0.80;;;;;;;;;;5052553;28;20072;-61
2022/05/25 14:16:03;;;;;;;2.97;1.00;;;;;;;;;;5054015;28;20389;-60
2022/05/25 14:18:56;;;;;;;3.63;1.30;;;;;;;;;;5054099;28;20060;-60
2022/05/25 14:21:50;;;;;;;3.72;1.10;;;;;;;;;;5053968;28;20076;-60
2022/05/25 14:24:44;;;;;;;2.35;1.20;;;;;;;;;;5073212;28;20102;-60
2022/05/25 14:27:37;;;;;;;2.13;1.10;;;;;;;;;;5071972;28;20040;-61
2022/05/25 14:30:32;;;;;;;3.90;1.00;;;;;;;;;;5069392;28;20074;-61
2022/05/25 14:33:00;;;;;;;2.22;1.10;;;;;;;;;;5063374;28;20025;-61
2022/05/25 14:35:27;;;;;;;2.50;1.20;;;;;;;;;;5068842;28;20489;-61
2022/05/25 14:37:55;;;;;;;2.47;1.05;;;;;;;;;;5068105;28;20112;-61
2022/05/25 14:40:28;;;;;;;2.05;1.10;;;;;;;;;;5052876;28;20033;-60
2022/05/25 14:42:59;;;;;;;2.45;1.13;;;;;;;;;;5053070;28;20040;-60
2022/05/25 14:45:25;;;;;;;4.25;1.25;;;;;;;;;;5053569;28;20120;-60
2022/05/25 14:48:10;;;;;;;4.25;1.20;;;;;;;;;;5053245;28;20108;-60
2022/05/25 14:50:57;;;;;;;3.15;1.27;;;;;;;;;;5053037;28;20064;-60
2022/05/25 14:53:33;;;;;;;4.57;1.52;;;;;;;;;;5065203;28;20053;-61
2022/05/25 14:56:02;;;;;;;2.50;1.10;;;;;;;;;;5071848;28;20028;-60
2022/05/25 14:58:46;;;;;;;1.45;0.93;;;;;;;;;;5072931;28;20043;-60
2022/05/25 15:01:14;;;;;;;2.47;1.08;;;;;;;;;;5072058;28;20080;-61
2022/05/25 15:03:45;;;;;;;2.80;1.00;;;;;;;;;;5063174;28;20085;-61
2022/05/25 15:06:15;;;;;;;9.10;1.10;;;;;;;;;;5052428;28;20037;-60
2022/05/25 15:08:42;;;;;;;2.30;0.93;;;;;;;;;;5051938;28;20055;-60
2022/05/25 15:11:22;;;;;;;2.88;1.10;;;;;;;;;;5047000;28;20112;-59
2022/05/25 15:19:37;;;;;;;1.10;1.00;;;;;;;;;;5052544;28;20047;-60
2022/05/25 15:22:03;;;;;;;3.72;1.17;;;;;;;;;;5051716;28;20037;-60
2022/05/25 15:24:28;;;;;;;1.77;0.98;;;;;;;;;;5052858;28;20040;-59
2022/05/25 15:26:58;;;;;;;1.25;0.90;;;;;;;;;;5052190;28;20037;-60
2022/05/25 15:29:31;;;;;;;4.88;1.15;;;;;;;;;;5052439;28;20492;-59
2022/05/25 15:31:58;;;;;;;3.40;1.00;;;;;;;;;;5052222;28;20033;-60
2022/05/25 15:34:25;;;;;;;1.45;1.00;;;;;;;;;;5058037;28;20040;-60
2022/05/25 15:36:51;;;;;;;4.13;1.00;;;;;;;;;;5052334;28;20036;-60
2022/05/25 15:39:18;;;;;;;3.30;1.30;;;;;;;;;;5064473;28;20465;-59
2022/05/25 15:41:44;;;;;;;3.58;1.10;;;;;;;;;;5072057;28;20032;-60
2022/05/25 15:44:11;;;;;;;2.03;1.00;;;;;;;;;;5053914;28;20469;-60
2022/05/25 15:46:42;;;;;;;1.85;1.10;;;;;;;;;;5052118;28;20029;-60
2022/05/25 15:49:10;;;;;;;1.77;1.00;;;;;;;;;;5051385;28;20516;-60
2022/05/25 15:51:39;;;;;;;4.63;1.10;;;;;;;;;;5025775;28;20477;-60